METAR Data
IDs: Format: Raw Decoded Include TAF

Data at: 0751 UTC 08 May 2021

ESSB 080720Z 26007KT CAVOK 08/01 Q1009